createdAt,value
2022-09-26T00:02:15.652Z,3.00
2022-09-26T00:04:43.627Z,3.37
2022-09-26T00:07:11.579Z,3.00
2022-09-26T00:09:39.632Z,3.50
2022-09-26T00:12:07.809Z,3.33
2022-09-26T00:14:37.120Z,3.50
2022-09-26T00:17:05.132Z,3.23
2022-09-26T00:19:33.274Z,3.20
2022-09-26T00:22:01.180Z,3.70
2022-09-26T00:24:29.073Z,3.03
2022-09-26T00:26:56.975Z,3.60
2022-09-26T00:29:24.885Z,3.27
2022-09-26T00:31:54.230Z,3.00
2022-09-26T00:34:22.128Z,3.30
2022-09-26T00:36:50.069Z,3.23
2022-09-26T00:39:18.017Z,3.10
2022-09-26T00:41:46.272Z,3.27
2022-09-26T00:44:32.548Z,3.50
2022-09-26T00:47:02.148Z,3.37
2022-09-26T00:49:31.317Z,3.20
2022-09-26T00:52:01.271Z,3.23
2022-09-26T00:54:29.933Z,3.37
2022-09-26T00:56:59.208Z,3.53
2022-09-26T00:59:29.805Z,3.27
2022-09-26T01:01:59.361Z,3.57
2022-09-26T01:04:31.721Z,3.63
2022-09-26T01:07:01.193Z,3.30
2022-09-26T01:09:29.939Z,3.50
2022-09-26T01:11:58.353Z,3.70
2022-09-26T01:14:26.362Z,3.50
2022-09-26T01:16:56.058Z,3.13
2022-09-26T01:19:25.609Z,3.07
2022-09-26T01:22:03.981Z,3.40
2022-09-26T01:24:45.803Z,3.27
2022-09-26T01:27:31.630Z,3.20
2022-09-26T01:30:17.423Z,3.40
2022-09-26T01:33:06.350Z,3.20
2022-09-26T01:35:41.957Z,3.73
2022-09-26T01:38:16.942Z,3.13
2022-09-26T01:40:47.249Z,3.80
2022-09-26T01:43:17.501Z,3.23
2022-09-26T01:45:48.067Z,3.30
2022-09-26T01:48:19.754Z,3.27
2022-09-26T01:50:50.091Z,3.57
2022-09-26T01:53:20.524Z,3.77
2022-09-26T01:55:50.218Z,3.10
2022-09-26T01:58:20.724Z,3.13
2022-09-26T02:00:50.681Z,3.53
2022-09-26T02:03:20.874Z,3.53
2022-09-26T02:05:51.949Z,3.40
2022-09-26T02:08:24.560Z,3.27
2022-09-26T02:10:53.920Z,3.23
2022-09-26T02:13:23.675Z,3.83
2022-09-26T02:15:53.407Z,3.40
2022-09-26T02:18:25.213Z,3.53
2022-09-26T02:20:55.876Z,3.53
2022-09-26T02:23:23.790Z,3.23
2022-09-26T02:25:51.746Z,3.00
2022-09-26T02:28:19.667Z,4.03
2022-09-26T02:30:49.313Z,3.17
2022-09-26T02:33:17.750Z,3.43
2022-09-26T02:35:56.070Z,3.40
2022-09-26T02:38:24.422Z,3.70
2022-09-26T02:40:56.518Z,3.67
2022-09-26T02:43:29.909Z,3.87
2022-09-26T02:46:04.143Z,3.90
2022-09-26T02:48:41.463Z,3.40
2022-09-26T02:51:15.266Z,4.23
2022-09-26T02:53:51.475Z,3.20
2022-09-26T02:56:28.150Z,3.47
2022-09-26T02:58:59.866Z,3.40
2022-09-26T03:01:31.689Z,3.50
2022-09-26T03:04:03.566Z,3.70
2022-09-26T03:06:35.946Z,3.63
2022-09-26T03:09:04.800Z,3.33
2022-09-26T03:11:33.543Z,3.70
2022-09-26T03:14:01.919Z,3.73
2022-09-26T03:16:31.899Z,3.40
2022-09-26T03:19:02.191Z,4.00
2022-09-26T03:21:32.733Z,3.50
2022-09-26T03:24:04.325Z,3.43
2022-09-26T03:26:33.297Z,3.00
2022-09-26T03:29:01.242Z,3.90
2022-09-26T03:31:29.273Z,4.00
2022-09-26T03:33:57.398Z,3.57
2022-09-26T03:36:25.332Z,4.00
2022-09-26T03:38:53.239Z,4.10
2022-09-26T03:41:24.482Z,3.60
2022-09-26T03:43:52.733Z,3.70
2022-09-26T03:46:20.779Z,3.80
2022-09-26T03:48:49.349Z,3.80
2022-09-26T03:51:17.234Z,3.43
2022-09-26T03:53:47.298Z,3.53
2022-09-26T03:56:16.883Z,3.73
2022-09-26T03:58:46.734Z,3.60
2022-09-26T04:01:15.339Z,3.10
2022-09-26T04:03:49.296Z,3.70
2022-09-26T04:06:20.483Z,3.87
2022-09-26T04:08:49.540Z,3.80
2022-09-26T04:11:19.516Z,3.83
2022-09-26T04:13:52.299Z,3.70
2022-09-26T04:16:21.444Z,4.53
2022-09-26T04:18:49.398Z,4.00
2022-09-26T04:21:17.708Z,3.73
2022-09-26T04:23:45.736Z,3.80
2022-09-26T04:26:20.141Z,4.07
2022-09-26T04:28:55.525Z,4.07
2022-09-26T04:31:24.338Z,4.20
2022-09-26T04:33:52.849Z,3.87
2022-09-26T04:36:20.881Z,3.73
2022-09-26T04:38:49.077Z,3.73
2022-09-26T04:41:17.773Z,3.80
2022-09-26T04:43:46.156Z,4.50
2022-09-26T04:46:21.011Z,4.27
2022-09-26T04:48:49.419Z,4.30
2022-09-26T04:51:18.349Z,4.17
2022-09-26T04:53:46.484Z,3.87
2022-09-26T04:56:15.572Z,3.70
2022-09-26T04:58:44.157Z,4.37
2022-09-26T05:01:13.370Z,3.97
2022-09-26T05:03:43.003Z,4.03
2022-09-26T05:06:11.401Z,4.03
2022-09-26T05:08:40.925Z,3.97
2022-09-26T05:11:09.846Z,3.87
2022-09-26T05:13:38.033Z,4.13
2022-09-26T05:16:08.951Z,4.60
2022-09-26T05:18:37.745Z,4.20
2022-09-26T05:21:08.015Z,5.20
2022-09-26T05:23:53.581Z,4.07
2022-09-26T05:26:23.748Z,3.97
2022-09-26T05:28:53.176Z,4.20
2022-09-26T05:31:22.843Z,4.27
2022-09-26T05:33:51.727Z,4.37
2022-09-26T05:36:21.054Z,4.20
2022-09-26T05:38:48.997Z,4.63
2022-09-26T05:41:16.342Z,3.93
2022-09-26T05:43:45.064Z,4.10
2022-09-26T05:46:13.288Z,3.50
2022-09-26T05:48:41.730Z,3.90
2022-09-26T05:51:12.044Z,3.93
2022-09-26T05:53:41.882Z,4.20
2022-09-26T05:56:12.735Z,4.30
2022-09-26T05:58:42.862Z,4.10
2022-09-26T06:01:11.714Z,4.00
2022-09-26T06:03:39.958Z,5.13
2022-09-26T06:06:08.525Z,11.90
2022-09-26T06:08:37.081Z,4.80
2022-09-26T06:11:07.848Z,3.87
2022-09-26T06:13:36.097Z,3.77
2022-09-26T06:16:06.401Z,3.80
2022-09-26T06:18:34.497Z,3.57
2022-09-26T06:21:03.781Z,4.20
2022-09-26T06:23:32.076Z,4.20
2022-09-26T06:26:00.309Z,4.27
2022-09-26T06:28:29.682Z,3.43
2022-09-26T06:30:57.866Z,3.43
2022-09-26T06:33:28.728Z,3.60
2022-09-26T06:36:01.061Z,3.47
2022-09-26T06:38:29.626Z,5.83
2022-09-26T06:40:57.589Z,4.27
2022-09-26T06:43:25.769Z,3.40
2022-09-26T06:45:55.101Z,3.63
2022-09-26T06:48:25.088Z,3.83
2022-09-26T06:50:53.405Z,3.73
2022-09-26T06:53:21.516Z,4.87
2022-09-26T06:55:49.951Z,3.07
2022-09-26T06:58:23.574Z,3.70
2022-09-26T07:00:53.227Z,3.90
2022-09-26T07:03:27.983Z,3.17
2022-09-26T07:05:58.183Z,3.50
2022-09-26T07:09:01.118Z,3.50
2022-09-26T07:14:20.651Z,3.67
2022-09-26T07:16:53.509Z,3.47
2022-09-26T07:19:24.662Z,3.97
2022-09-26T07:21:59.401Z,3.77
2022-09-26T07:24:42.083Z,3.33
2022-09-26T07:27:15.095Z,3.50
2022-09-26T07:29:49.406Z,4.10
2022-09-26T07:32:26.737Z,4.07
2022-09-26T07:35:00.091Z,3.90
2022-09-26T07:37:30.448Z,4.20
2022-09-26T07:40:01.852Z,3.73
2022-09-26T07:42:31.737Z,3.87
2022-09-26T07:45:29.487Z,3.70
2022-09-26T07:48:12.371Z,3.40
2022-09-26T07:50:54.822Z,3.47
2022-09-26T07:53:32.942Z,3.70
2022-09-26T07:56:13.113Z,3.10
2022-09-26T07:58:49.543Z,2.77
2022-09-26T08:01:22.448Z,3.37
2022-09-26T08:03:50.514Z,3.57
2022-09-26T08:06:21.057Z,3.50
2022-09-26T08:08:49.952Z,2.73
2022-09-26T08:11:20.497Z,2.87
2022-09-26T08:13:48.852Z,2.90
2022-09-26T08:16:23.723Z,3.63
2022-09-26T08:18:52.335Z,3.10
2022-09-26T08:21:22.128Z,3.23
2022-09-26T08:23:50.056Z,2.80
2022-09-26T08:26:21.495Z,2.80
2022-09-26T08:28:49.466Z,2.50
2022-09-26T08:31:18.117Z,2.50
2022-09-26T08:33:46.130Z,2.77
2022-09-26T08:36:15.476Z,2.63
2022-09-26T08:38:45.438Z,2.43
2022-09-26T08:41:21.669Z,2.00
2022-09-26T08:43:58.137Z,2.17
2022-09-26T08:46:45.333Z,2.00
2022-09-26T08:49:30.517Z,2.03
2022-09-26T08:52:00.123Z,1.90
2022-09-26T08:54:34.600Z,2.00
2022-09-26T08:57:04.444Z,1.70
2022-09-26T08:59:36.894Z,1.60
2022-09-26T09:02:20.930Z,1.93
2022-09-26T09:04:54.043Z,1.83
2022-09-26T09:07:23.253Z,2.20
2022-09-26T09:09:53.635Z,2.10
2022-09-26T09:12:25.475Z,1.70
2022-09-26T09:15:23.596Z,1.87
2022-09-26T09:17:52.798Z,2.20
2022-09-26T09:20:35.662Z,1.97
2022-09-26T09:23:12.332Z,2.20
2022-09-26T09:25:44.372Z,2.03
2022-09-26T09:28:19.438Z,2.00
2022-09-26T09:30:48.899Z,1.90
2022-09-26T09:33:19.062Z,2.13
2022-09-26T09:35:48.888Z,2.23
2022-09-26T09:38:18.249Z,1.80
2022-09-26T09:40:51.603Z,1.80
2022-09-26T09:43:27.234Z,1.77
2022-09-26T09:45:56.924Z,1.50
2022-09-26T09:48:27.291Z,1.60
2022-09-26T09:51:02.356Z,1.90
2022-09-26T09:53:36.226Z,1.40
2022-09-26T09:56:11.179Z,1.47
2022-09-26T09:58:56.764Z,1.40
2022-09-26T10:01:27.265Z,1.40
2022-09-26T10:04:04.813Z,1.50
2022-09-26T10:06:46.166Z,1.70
2022-09-26T10:09:37.069Z,1.50
2022-09-26T10:12:12.852Z,1.33
2022-09-26T10:14:44.019Z,1.50
2022-09-26T10:17:16.034Z,1.13
2022-09-26T10:19:45.393Z,1.47
2022-09-26T10:22:17.346Z,1.30
2022-09-26T10:24:46.180Z,1.50
2022-09-26T10:27:18.466Z,1.50
2022-09-26T10:29:47.388Z,1.30
2022-09-26T10:32:15.428Z,1.17
2022-09-26T10:34:43.325Z,1.43
2022-09-26T10:37:21.629Z,1.40
2022-09-26T10:40:11.085Z,1.10
2022-09-26T10:42:40.838Z,1.90
2022-09-26T10:45:14.253Z,1.30
2022-09-26T10:47:45.560Z,1.13
2022-09-26T10:50:16.664Z,1.20
2022-09-26T10:52:46.680Z,1.00
2022-09-26T10:55:15.530Z,1.37
2022-09-26T10:57:46.985Z,1.33
2022-09-26T11:00:19.048Z,1.90
2022-09-26T11:02:48.042Z,1.00
2022-09-26T11:05:34.456Z,1.40
2022-09-26T11:08:04.639Z,1.20
2022-09-26T11:10:33.683Z,1.00
2022-09-26T11:13:05.255Z,1.33
2022-09-26T11:15:34.004Z,1.50
2022-09-26T11:18:01.991Z,1.30
2022-09-26T11:20:47.199Z,1.33
2022-09-26T11:23:22.546Z,1.30
2022-09-26T11:25:58.109Z,1.17
2022-09-26T11:28:31.139Z,1.13
2022-09-26T11:31:03.131Z,1.17
2022-09-26T11:33:31.143Z,1.17
2022-09-26T11:36:16.859Z,1.40
2022-09-26T11:38:47.294Z,1.40
2022-09-26T11:41:38.334Z,1.00
2022-09-26T11:44:17.622Z,2.50
2022-09-26T11:46:48.375Z,1.17
2022-09-26T11:49:27.928Z,1.00
2022-09-26T11:52:02.237Z,0.90
2022-09-26T11:54:39.225Z,1.10
2022-09-26T11:57:13.039Z,0.93
2022-09-26T11:59:56.117Z,1.00
2022-09-26T12:02:32.299Z,1.00
2022-09-26T12:05:14.274Z,0.90
2022-09-26T12:07:46.549Z,1.73
2022-09-26T12:10:29.032Z,1.10
2022-09-26T12:13:07.807Z,1.07
2022-09-26T12:15:40.343Z,1.23
2022-09-26T12:18:13.992Z,1.30
2022-09-26T12:20:46.653Z,1.00
2022-09-26T12:23:21.607Z,1.10
2022-09-26T12:25:56.189Z,1.00
2022-09-26T12:28:30.908Z,1.17
2022-09-26T12:31:08.061Z,1.07
2022-09-26T12:33:45.574Z,1.20
2022-09-26T12:36:19.054Z,1.13
2022-09-26T12:38:58.148Z,1.07
2022-09-26T12:41:33.580Z,0.77
2022-09-26T12:44:13.100Z,1.13
2022-09-26T12:46:50.314Z,1.17
2022-09-26T12:49:24.966Z,0.90
2022-09-26T12:51:55.077Z,0.87
2022-09-26T12:54:43.956Z,1.03
2022-09-26T12:57:17.937Z,1.13
2022-09-26T12:59:58.286Z,1.23
2022-09-26T13:02:39.024Z,1.43
2022-09-26T13:05:37.632Z,1.10
2022-09-26T13:08:09.096Z,1.03
2022-09-26T13:10:39.403Z,1.10
2022-09-26T13:13:23.313Z,0.87
2022-09-26T13:15:55.938Z,1.00
2022-09-26T13:18:29.001Z,1.03
2022-09-26T13:21:03.141Z,1.00
2022-09-26T13:23:32.806Z,0.93
2022-09-26T13:26:03.067Z,1.00
2022-09-26T13:28:35.063Z,1.83
2022-09-26T13:31:04.867Z,1.30
2022-09-26T13:33:35.214Z,1.20
2022-09-26T13:36:04.644Z,1.20
2022-09-26T13:38:38.039Z,0.93
2022-09-26T13:41:11.812Z,1.00
2022-09-26T13:43:53.674Z,1.20
2022-09-26T13:46:27.165Z,1.47
2022-09-26T13:49:01.062Z,1.20
2022-09-26T13:51:38.111Z,1.10
2022-09-26T13:54:17.142Z,1.00
2022-09-26T13:56:49.695Z,1.00
2022-09-26T13:59:27.815Z,1.33
2022-09-26T14:02:16.014Z,1.10
2022-09-26T14:04:45.557Z,1.10
2022-09-26T14:07:39.939Z,2.53
2022-09-26T14:10:14.926Z,1.53
2022-09-26T14:12:54.349Z,1.07
2022-09-26T14:15:24.305Z,1.10
2022-09-26T14:18:01.286Z,1.10
2022-09-26T14:20:32.819Z,1.23
2022-09-26T14:23:02.094Z,1.00
2022-09-26T14:25:48.343Z,0.70
2022-09-26T14:28:22.489Z,1.10
2022-09-26T14:31:09.195Z,1.07
2022-09-26T14:33:37.201Z,1.03
2022-09-26T14:36:27.043Z,1.20
2022-09-26T14:38:55.669Z,1.07
2022-09-26T14:41:28.180Z,1.57
2022-09-26T14:44:00.634Z,1.00
2022-09-26T14:46:33.374Z,1.10
2022-09-26T14:49:03.369Z,1.27
2022-09-26T14:51:33.970Z,0.97
2022-09-26T14:54:03.680Z,1.00
2022-09-26T14:56:38.118Z,1.30
2022-09-26T14:59:24.485Z,1.10
2022-09-26T15:01:53.193Z,0.93
2022-09-26T15:04:23.277Z,1.20
2022-09-26T15:06:54.378Z,1.37
2022-09-26T15:09:24.104Z,1.13
2022-09-26T15:11:56.034Z,0.90
2022-09-26T15:14:27.320Z,1.10
2022-09-26T15:16:56.446Z,0.90
2022-09-26T15:19:26.507Z,1.13
2022-09-26T15:21:58.589Z,0.80
2022-09-26T15:24:29.156Z,1.20
2022-09-26T15:26:58.535Z,1.27
2022-09-26T15:29:26.928Z,1.10
2022-09-26T15:31:56.014Z,1.00
2022-09-26T15:34:25.287Z,0.80
2022-09-26T15:36:54.448Z,0.80
2022-09-26T15:39:42.041Z,1.00
2022-09-26T15:42:44.799Z,1.30
2022-09-26T15:45:23.220Z,1.00
2022-09-26T15:47:51.216Z,1.00
2022-09-26T15:50:20.996Z,1.07
2022-09-26T15:52:50.620Z,1.10
2022-09-26T15:55:21.585Z,1.00
2022-09-26T15:57:50.535Z,0.90
2022-09-26T16:00:19.030Z,1.10
2022-09-26T16:02:47.558Z,1.00
2022-09-26T16:05:15.739Z,0.90
2022-09-26T16:07:48.910Z,0.90
2022-09-26T16:10:26.206Z,1.60
2022-09-26T16:12:54.432Z,1.10
2022-09-26T16:15:29.413Z,1.00
2022-09-26T16:17:58.183Z,1.00
2022-09-26T16:20:27.849Z,1.17
2022-09-26T16:23:00.338Z,0.83
2022-09-26T16:25:34.426Z,1.20
2022-09-26T16:28:03.835Z,1.13
2022-09-26T16:30:42.990Z,1.20
2022-09-26T16:33:26.306Z,1.20
2022-09-26T16:35:54.291Z,1.30
2022-09-26T16:38:25.177Z,1.40
2022-09-26T16:40:55.276Z,1.17
2022-09-26T16:43:27.405Z,1.50
2022-09-26T16:46:01.711Z,1.50
2022-09-26T16:48:37.236Z,1.40
2022-09-26T16:51:15.782Z,1.50
2022-09-26T16:53:47.297Z,1.20
2022-09-26T16:56:18.338Z,1.20
2022-09-26T16:58:49.683Z,1.80
2022-09-26T17:01:35.401Z,1.73
2022-09-26T17:04:03.576Z,1.40
2022-09-26T17:06:32.236Z,1.37
2022-09-26T17:09:02.859Z,1.67
2022-09-26T17:11:32.221Z,1.57
2022-09-26T17:14:00.173Z,2.77
2022-09-26T17:16:29.853Z,1.83
2022-09-26T17:18:57.882Z,1.73
2022-09-26T17:21:25.873Z,1.27
2022-09-26T17:23:53.807Z,1.40
2022-09-26T17:26:23.933Z,2.20
2022-09-26T17:28:54.225Z,1.23
2022-09-26T17:31:22.342Z,1.37
2022-09-26T17:33:52.494Z,0.90
2022-09-26T17:36:21.929Z,1.00
2022-09-26T17:38:49.920Z,0.97
2022-09-26T17:41:18.041Z,1.90
2022-09-26T17:43:46.004Z,1.30
2022-09-26T17:46:16.579Z,1.10
2022-09-26T17:48:45.549Z,1.10
2022-09-26T17:51:14.711Z,1.10
2022-09-26T17:53:49.786Z,1.00
2022-09-26T17:56:18.729Z,1.03
2022-09-26T17:58:47.385Z,1.70
2022-09-26T18:01:22.573Z,1.40
2022-09-26T18:03:56.133Z,1.50
2022-09-26T18:06:26.606Z,1.93
2022-09-26T18:08:58.407Z,1.17
2022-09-26T18:11:27.322Z,1.00
2022-09-26T18:13:57.141Z,1.23
2022-09-26T18:16:26.625Z,0.90
2022-09-26T18:18:54.792Z,1.30
2022-09-26T18:21:24.488Z,1.43
2022-09-26T18:23:53.629Z,1.17
2022-09-26T18:26:26.124Z,1.13
2022-09-26T18:28:55.479Z,1.00
2022-09-26T18:31:28.503Z,1.27
2022-09-26T18:33:58.335Z,1.20
2022-09-26T18:36:26.714Z,1.47
2022-09-26T18:38:54.877Z,1.00
2022-09-26T18:41:25.124Z,1.60
2022-09-26T18:43:55.194Z,3.17
2022-09-26T18:46:23.964Z,1.43
2022-09-26T18:48:52.066Z,1.00
2022-09-26T18:51:21.706Z,1.00
2022-09-26T18:53:49.665Z,1.50
2022-09-26T18:56:35.314Z,1.27
2022-09-26T18:59:03.307Z,1.17
2022-09-26T19:01:33.204Z,0.70
2022-09-26T19:04:02.157Z,1.20
2022-09-26T19:06:32.774Z,2.03
2022-09-26T19:09:01.594Z,1.23
2022-09-26T19:11:32.081Z,1.40
2022-09-26T19:14:02.205Z,1.50
2022-09-26T19:16:30.208Z,1.47
2022-09-26T19:18:58.189Z,1.37
2022-09-26T19:21:29.662Z,1.37
2022-09-26T19:24:00.128Z,1.40
2022-09-26T19:26:29.020Z,1.20
2022-09-26T19:28:57.549Z,1.07
2022-09-26T19:31:25.655Z,1.23
2022-09-26T19:33:54.015Z,1.20
2022-09-26T19:36:22.306Z,1.20
2022-09-26T19:38:50.272Z,1.20
2022-09-26T19:41:19.649Z,1.00
2022-09-26T19:43:47.639Z,1.20
2022-09-26T19:46:18.692Z,1.17
2022-09-26T19:48:46.807Z,1.00
2022-09-26T19:51:15.840Z,1.07
2022-09-26T19:53:43.857Z,1.10
2022-09-26T19:56:11.875Z,0.90
2022-09-26T19:58:48.752Z,1.10
2022-09-26T20:01:17.483Z,1.00
2022-09-26T20:03:45.502Z,1.10
2022-09-26T20:06:15.407Z,1.20
2022-09-26T20:08:43.427Z,0.90
2022-09-26T20:11:11.555Z,0.97
2022-09-26T20:13:53.355Z,1.00
2022-09-26T20:16:23.634Z,1.20
2022-09-26T20:18:53.301Z,1.23
2022-09-26T20:21:24.844Z,1.03
2022-09-26T20:23:52.947Z,1.10
2022-09-26T20:26:21.113Z,1.10
2022-09-26T20:28:49.143Z,1.10
2022-09-26T20:31:21.038Z,1.10
2022-09-26T20:33:51.298Z,1.23
2022-09-26T20:36:22.981Z,1.40
2022-09-26T20:38:52.376Z,1.13
2022-09-26T20:41:26.564Z,0.90
2022-09-26T20:43:57.296Z,1.30
2022-09-26T20:46:25.418Z,1.30
2022-09-26T20:48:54.946Z,0.97
2022-09-26T20:51:25.692Z,1.27
2022-09-26T20:53:53.632Z,1.20
2022-09-26T20:56:22.004Z,1.10
2022-09-26T20:58:50.223Z,1.43
2022-09-26T21:01:19.147Z,1.60
2022-09-26T21:03:48.565Z,1.07
2022-09-26T21:06:19.687Z,1.20
2022-09-26T21:08:47.999Z,1.40
2022-09-26T21:11:16.618Z,1.00
2022-09-26T21:13:44.639Z,1.20
2022-09-26T21:16:13.660Z,1.27
2022-09-26T21:18:42.261Z,1.00
2022-09-26T21:21:14.819Z,1.20
2022-09-26T21:23:44.521Z,1.20
2022-09-26T21:26:17.328Z,1.33
2022-09-26T21:28:45.367Z,1.30
2022-09-26T21:31:20.164Z,1.30
2022-09-26T21:33:48.170Z,1.30
2022-09-26T21:36:16.174Z,1.20
2022-09-26T21:38:45.791Z,1.20
2022-09-26T21:41:14.031Z,1.20
2022-09-26T21:43:44.186Z,1.20
2022-09-26T21:46:12.151Z,1.40
2022-09-26T21:48:40.186Z,1.50
2022-09-26T21:51:09.016Z,1.43
2022-09-26T21:53:39.762Z,1.50
2022-09-26T21:56:11.345Z,1.30
2022-09-26T21:58:40.269Z,1.33
2022-09-26T22:01:08.837Z,1.23
2022-09-26T22:03:37.407Z,1.30
2022-09-26T22:06:07.398Z,1.17
2022-09-26T22:08:35.656Z,1.90
2022-09-26T22:11:03.889Z,1.40
2022-09-26T22:13:33.349Z,1.03
2022-09-26T22:16:05.474Z,1.17
2022-09-26T22:18:34.234Z,1.40
2022-09-26T22:21:04.864Z,1.40
2022-09-26T22:23:32.947Z,1.20
2022-09-26T22:26:01.131Z,1.30
2022-09-26T22:28:29.436Z,1.10
2022-09-26T22:31:01.938Z,1.40
2022-09-26T22:33:30.142Z,1.40
2022-09-26T22:35:58.151Z,1.57
2022-09-26T22:38:26.124Z,1.40
2022-09-26T22:40:58.140Z,1.50
2022-09-26T22:43:26.177Z,1.00
2022-09-26T22:45:54.428Z,1.40
2022-09-26T22:48:23.813Z,1.43
2022-09-26T22:50:51.742Z,1.30
2022-09-26T22:53:19.711Z,1.17
2022-09-26T22:55:52.580Z,1.10
2022-09-26T22:58:20.573Z,1.70
2022-09-26T23:00:48.832Z,0.90
2022-09-26T23:03:16.795Z,1.10
2022-09-26T23:05:47.509Z,1.33
2022-09-26T23:08:15.477Z,1.37
2022-09-26T23:10:49.100Z,1.10
2022-09-26T23:13:17.152Z,1.07
2022-09-26T23:15:45.148Z,1.47
2022-09-26T23:18:13.439Z,1.17
2022-09-26T23:20:41.675Z,1.23
2022-09-26T23:23:11.861Z,0.93
2022-09-26T23:25:46.129Z,1.17
2022-09-26T23:28:14.306Z,1.30
2022-09-26T23:30:42.662Z,0.80
2022-09-26T23:33:10.786Z,1.27
2022-09-26T23:35:39.010Z,1.33
2022-09-26T23:38:06.949Z,1.10
2022-09-26T23:40:37.921Z,1.23
2022-09-26T23:43:05.889Z,1.33
2022-09-26T23:45:33.828Z,1.00
2022-09-26T23:48:01.998Z,1.37
2022-09-26T23:50:29.936Z,1.30
2022-09-26T23:52:59.350Z,1.40
2022-09-26T23:55:29.232Z,1.17
2022-09-26T23:57:59.002Z,1.30
